createdAt,value
2017-12-29T00:00:48.835Z,992.5
2017-12-29T00:01:51.249Z,992.5
2017-12-29T00:02:53.653Z,992.5
2017-12-29T00:03:56.068Z,992.4
2017-12-29T00:04:58.764Z,992.5
2017-12-29T00:06:01.167Z,992.4
2017-12-29T00:07:03.584Z,992.4
2017-12-29T00:08:06.276Z,992.4
2017-12-29T00:09:08.681Z,992.4
2017-12-29T00:10:11.079Z,992.4
2017-12-29T00:11:13.501Z,992.4
2017-12-29T00:12:15.911Z,992.5
2017-12-29T00:13:18.317Z,992.4
2017-12-29T00:14:20.731Z,992.5
2017-12-29T00:15:23.135Z,992.4
2017-12-29T00:16:25.537Z,992.4
2017-12-29T00:17:28.254Z,992.4
2017-12-29T00:18:30.652Z,992.5
2017-12-29T00:19:33.067Z,992.5
2017-12-29T00:20:35.759Z,992.4
2017-12-29T00:21:38.456Z,992.6
2017-12-29T00:22:40.858Z,992.5
2017-12-29T00:23:43.271Z,992.5
2017-12-29T00:24:45.973Z,992.5
2017-12-29T00:25:48.383Z,992.5
2017-12-29T00:26:51.080Z,992.5
2017-12-29T00:27:53.494Z,992.6
2017-12-29T00:28:55.897Z,992.6
2017-12-29T00:29:58.608Z,992.5
2017-12-29T00:31:01.014Z,992.6
2017-12-29T00:32:03.416Z,992.7
2017-12-29T00:33:05.833Z,992.7
2017-12-29T00:34:08.240Z,992.6
2017-12-29T00:35:10.653Z,992.7
2017-12-29T00:36:13.066Z,992.7
2017-12-29T00:37:15.740Z,992.7
2017-12-29T00:38:18.148Z,992.7
2017-12-29T00:39:20.567Z,992.8
2017-12-29T00:40:22.973Z,992.8
2017-12-29T00:41:25.382Z,992.8
2017-12-29T00:42:27.794Z,992.8
2017-12-29T00:43:30.197Z,992.7
2017-12-29T00:44:32.603Z,992.7
2017-12-29T00:45:35.008Z,992.8
2017-12-29T00:46:37.420Z,992.8
2017-12-29T00:47:39.829Z,992.8
2017-12-29T00:48:42.240Z,992.9
2017-12-29T00:49:44.652Z,992.6
2017-12-29T00:50:47.349Z,993
2017-12-29T00:51:49.760Z,992.9
2017-12-29T00:52:52.182Z,992.9
2017-12-29T00:53:54.587Z,992.9
2017-12-29T00:54:57.002Z,993
2017-12-29T00:55:59.405Z,992.9
2017-12-29T00:57:02.116Z,993
2017-12-29T00:58:04.525Z,993
2017-12-29T00:59:06.933Z,993
2017-12-29T01:00:09.337Z,993
2017-12-29T01:01:11.751Z,993
2017-12-29T01:02:14.150Z,992.9
2017-12-29T01:03:16.575Z,993
2017-12-29T01:04:18.983Z,993
2017-12-29T01:05:21.394Z,993.1
2017-12-29T01:06:23.802Z,993
2017-12-29T01:07:26.218Z,993
2017-12-29T01:08:28.629Z,993.1
2017-12-29T01:09:31.028Z,993
2017-12-29T01:10:33.446Z,993
2017-12-29T01:11:35.849Z,993.1
2017-12-29T01:12:38.266Z,993.1
2017-12-29T01:13:41.245Z,993.2
2017-12-29T01:14:43.650Z,993.1
2017-12-29T01:15:46.065Z,993.1
2017-12-29T01:16:48.484Z,993.1
2017-12-29T01:17:51.162Z,993.2
2017-12-29T01:18:53.577Z,993.1
2017-12-29T01:19:55.993Z,993.1
2017-12-29T01:20:58.403Z,993.2
2017-12-29T01:22:00.814Z,993.1
2017-12-29T01:23:03.227Z,993.2
2017-12-29T01:24:05.917Z,993.1
2017-12-29T01:25:08.333Z,993.2
2017-12-29T01:26:10.744Z,993.2
2017-12-29T01:27:13.144Z,993.2
2017-12-29T01:28:15.550Z,993.2
2017-12-29T01:29:17.963Z,993.2
2017-12-29T01:30:20.374Z,993.2
2017-12-29T01:31:22.775Z,993.2
2017-12-29T01:32:25.187Z,993.2
2017-12-29T01:33:27.596Z,993.2
2017-12-29T01:34:30.017Z,993.2
2017-12-29T01:35:32.714Z,993.2
2017-12-29T01:36:35.118Z,993.2
2017-12-29T01:37:37.814Z,993.2
2017-12-29T01:38:40.220Z,993.2
2017-12-29T01:39:42.631Z,993.2
2017-12-29T01:40:45.028Z,993.2
2017-12-29T01:41:47.440Z,993.2
2017-12-29T01:42:49.840Z,993.3
2017-12-29T01:43:52.258Z,993.2
2017-12-29T01:44:54.664Z,993.2
2017-12-29T01:45:57.369Z,993.2
2017-12-29T01:46:59.779Z,993.3
2017-12-29T01:48:02.202Z,993.3
2017-12-29T01:49:04.609Z,993.1
2017-12-29T01:50:07.618Z,993.2
2017-12-29T01:51:10.059Z,992.8
2017-12-29T01:52:12.470Z,993.1
2017-12-29T01:53:14.877Z,993.1
2017-12-29T01:54:17.284Z,993.1
2017-12-29T01:55:19.704Z,993.1
2017-12-29T01:56:22.393Z,993.2
2017-12-29T01:57:24.796Z,993.2
2017-12-29T01:58:27.208Z,993.1
2017-12-29T01:59:29.950Z,993.1
2017-12-29T02:00:32.340Z,993.1
2017-12-29T02:01:34.768Z,993.1
2017-12-29T02:02:37.172Z,993.1
2017-12-29T02:03:39.866Z,993.1
2017-12-29T02:04:42.281Z,993.1
2017-12-29T02:05:44.706Z,993.2
2017-12-29T02:06:47.090Z,993.1
2017-12-29T02:07:50.066Z,993.2
2017-12-29T02:08:52.464Z,993.1
2017-12-29T02:09:54.877Z,993
2017-12-29T02:10:57.289Z,993.2
2017-12-29T02:11:59.702Z,993.2
2017-12-29T02:13:02.112Z,993.1
2017-12-29T02:14:04.809Z,993.2
2017-12-29T02:15:07.230Z,993.1
2017-12-29T02:16:09.637Z,993.1
2017-12-29T02:17:12.053Z,993.2
2017-12-29T02:18:14.456Z,993.3
2017-12-29T02:19:16.868Z,993.2
2017-12-29T02:20:19.279Z,993.1
2017-12-29T02:21:21.688Z,993.2
2017-12-29T02:22:24.095Z,993.1
2017-12-29T02:23:26.513Z,993.2
2017-12-29T02:24:28.918Z,993.3
2017-12-29T02:25:31.314Z,993.2
2017-12-29T02:26:33.740Z,993.2
2017-12-29T02:27:36.155Z,993.2
2017-12-29T02:28:38.846Z,993.2
2017-12-29T02:29:41.254Z,993.2
2017-12-29T02:30:43.665Z,993.2
2017-12-29T02:31:46.075Z,993.2
2017-12-29T02:32:48.487Z,993.2
2017-12-29T02:33:50.885Z,993.2
2017-12-29T02:34:53.288Z,993.2
2017-12-29T02:35:55.992Z,993.2
2017-12-29T02:36:58.403Z,993.2
2017-12-29T02:38:00.817Z,993.2
2017-12-29T02:39:03.238Z,993.3
2017-12-29T02:40:05.648Z,993.3
2017-12-29T02:41:08.046Z,993.3
2017-12-29T02:42:10.458Z,993.3
2017-12-29T02:43:12.873Z,993.3
2017-12-29T02:44:15.282Z,993.2
2017-12-29T02:45:17.687Z,993.3
2017-12-29T02:46:20.092Z,993.2
2017-12-29T02:47:22.782Z,993.2
2017-12-29T02:48:25.208Z,993.2
2017-12-29T02:49:27.619Z,993.3
2017-12-29T02:50:30.028Z,993.3
2017-12-29T02:51:32.442Z,993.3
2017-12-29T02:52:34.851Z,993.4
2017-12-29T02:53:37.264Z,993.3
2017-12-29T02:54:39.669Z,993.3
2017-12-29T02:55:42.077Z,993.3
2017-12-29T02:56:44.496Z,993.3
2017-12-29T02:57:46.916Z,993.3
2017-12-29T02:58:49.327Z,993.3
2017-12-29T02:59:51.740Z,993.3
2017-12-29T03:00:54.146Z,993.3
2017-12-29T03:01:56.829Z,993.4
2017-12-29T03:02:59.244Z,993.4
2017-12-29T03:04:01.648Z,993.5
2017-12-29T03:05:04.060Z,993.4
2017-12-29T03:06:06.473Z,993.4
2017-12-29T03:07:08.880Z,993.5
2017-12-29T03:08:11.295Z,993.4
2017-12-29T03:09:13.703Z,993.5
2017-12-29T03:10:16.123Z,993.5
2017-12-29T03:11:18.540Z,993.5
2017-12-29T03:12:20.950Z,993.5
2017-12-29T03:13:23.354Z,993.4
2017-12-29T03:14:25.777Z,993.4
2017-12-29T03:15:28.461Z,993.7
2017-12-29T03:16:31.457Z,993.5
2017-12-29T03:17:34.141Z,993.5
2017-12-29T03:18:36.556Z,993.4
2017-12-29T03:19:38.967Z,993.5
2017-12-29T03:20:41.388Z,993.5
2017-12-29T03:21:43.781Z,993.5
2017-12-29T03:22:46.206Z,993.5
2017-12-29T03:23:48.603Z,993.6
2017-12-29T03:24:51.313Z,993.5
2017-12-29T03:25:53.732Z,993.5
2017-12-29T03:26:56.135Z,993.5
2017-12-29T03:27:58.549Z,993.5
2017-12-29T03:29:01.541Z,993.5
2017-12-29T03:30:03.951Z,993.5
2017-12-29T03:31:06.362Z,993.5
2017-12-29T03:32:08.778Z,993.5
2017-12-29T03:33:11.175Z,993.6
2017-12-29T03:34:13.895Z,993.5
2017-12-29T03:35:16.595Z,993.5
2017-12-29T03:36:18.996Z,993.5
2017-12-29T03:37:21.409Z,993.6
2017-12-29T03:38:23.824Z,993.6
2017-12-29T03:39:26.241Z,993.6
2017-12-29T03:40:28.933Z,993.6
2017-12-29T03:41:31.342Z,993.7
2017-12-29T03:42:33.757Z,993.6
2017-12-29T03:43:36.169Z,993.6
2017-12-29T03:44:38.576Z,993.7
2017-12-29T03:45:40.988Z,993.7
2017-12-29T03:46:43.965Z,993.6
2017-12-29T03:47:46.389Z,993.6
2017-12-29T03:48:49.083Z,993.6
2017-12-29T03:49:51.759Z,993.7
2017-12-29T03:50:54.179Z,993.7
2017-12-29T03:51:56.585Z,993.6
2017-12-29T03:52:59.005Z,993.7
2017-12-29T03:54:01.419Z,993.8
2017-12-29T03:55:03.816Z,993.7
2017-12-29T03:56:06.226Z,993.8
2017-12-29T03:57:08.643Z,993.7
2017-12-29T03:58:11.047Z,993.8
2017-12-29T03:59:13.457Z,993.7
2017-12-29T04:00:15.865Z,993.7
2017-12-29T04:01:18.269Z,993.8
2017-12-29T04:02:20.688Z,993.7
2017-12-29T04:03:23.383Z,993.8
2017-12-29T04:04:25.787Z,993.8
2017-12-29T04:05:28.196Z,993.6
2017-12-29T04:06:30.605Z,993.8
2017-12-29T04:07:33.299Z,993.7
2017-12-29T04:08:35.703Z,993.7
2017-12-29T04:09:38.118Z,993.7
2017-12-29T04:10:40.523Z,993.7
2017-12-29T04:11:42.936Z,993.8
2017-12-29T04:12:45.346Z,993.7
2017-12-29T04:13:47.760Z,993.8
2017-12-29T04:14:50.157Z,993.8
2017-12-29T04:15:52.580Z,993.8
2017-12-29T04:16:54.984Z,993.7
2017-12-29T04:17:57.397Z,993.8
2017-12-29T04:18:59.800Z,993.8
2017-12-29T04:20:02.211Z,993.8
2017-12-29T04:21:04.622Z,993.8
2017-12-29T04:22:07.035Z,993.8
2017-12-29T04:23:09.447Z,993.8
2017-12-29T04:24:11.862Z,993.8
2017-12-29T04:25:14.262Z,993.8
2017-12-29T04:26:16.674Z,993.8
2017-12-29T04:27:19.072Z,993.9
2017-12-29T04:28:21.500Z,993.8
2017-12-29T04:29:24.475Z,993.9
2017-12-29T04:30:26.893Z,993.9
2017-12-29T04:31:29.584Z,993.9
2017-12-29T04:32:31.993Z,993.9
2017-12-29T04:33:34.403Z,994
2017-12-29T04:34:36.819Z,993.9
2017-12-29T04:35:39.222Z,993.9
2017-12-29T04:36:41.630Z,993.9
2017-12-29T04:37:44.047Z,994
2017-12-29T04:38:46.453Z,994.1
2017-12-29T04:39:48.861Z,994.1
2017-12-29T04:40:51.274Z,994
2017-12-29T04:41:53.687Z,994
2017-12-29T04:42:56.091Z,994.1
2017-12-29T04:43:58.509Z,994.1
2017-12-29T04:45:01.202Z,994.2
2017-12-29T04:46:03.606Z,994.2
2017-12-29T04:47:06.021Z,994.1
2017-12-29T04:48:08.431Z,994.2
2017-12-29T04:49:10.828Z,994.2
2017-12-29T04:50:13.245Z,994.1
2017-12-29T04:51:15.648Z,994.2
2017-12-29T04:52:18.065Z,994.2
2017-12-29T04:53:20.467Z,994.2
2017-12-29T04:54:22.873Z,994.2
2017-12-29T04:55:25.280Z,994.2
2017-12-29T04:56:27.967Z,994.2
2017-12-29T04:57:30.369Z,994.3
2017-12-29T04:58:32.784Z,994.2
2017-12-29T04:59:35.196Z,994.2
2017-12-29T05:00:37.611Z,994.3
2017-12-29T05:01:40.025Z,994.3
2017-12-29T05:02:42.437Z,994.4
2017-12-29T05:03:44.843Z,994.3
2017-12-29T05:04:47.532Z,994.4
2017-12-29T05:05:49.939Z,994.3
2017-12-29T05:06:52.349Z,994.3
2017-12-29T05:07:54.753Z,994.3
2017-12-29T05:08:57.447Z,994.4
2017-12-29T05:09:59.860Z,994.3
2017-12-29T05:11:02.836Z,994.3
2017-12-29T05:12:05.245Z,994.3
2017-12-29T05:13:07.665Z,994.4
2017-12-29T05:14:10.070Z,994.3
2017-12-29T05:15:12.472Z,994.4
2017-12-29T05:16:14.882Z,994.4
2017-12-29T05:17:17.289Z,994.4
2017-12-29T05:18:19.703Z,994.4
2017-12-29T05:19:22.118Z,994.4
2017-12-29T05:20:24.512Z,994.4
2017-12-29T05:21:26.925Z,994.5
2017-12-29T05:22:29.334Z,994.4
2017-12-29T05:23:31.742Z,994.4
2017-12-29T05:24:34.151Z,994.4
2017-12-29T05:25:36.556Z,994.5
2017-12-29T05:26:38.961Z,994.5
2017-12-29T05:27:41.387Z,994.4
2017-12-29T05:28:43.795Z,994.4
2017-12-29T05:29:46.204Z,994.4
2017-12-29T05:30:48.611Z,994.4
2017-12-29T05:31:51.028Z,994.5
2017-12-29T05:32:53.439Z,994.5
2017-12-29T05:33:55.848Z,994.4
2017-12-29T05:34:58.246Z,994.4
2017-12-29T05:36:00.665Z,994.4
2017-12-29T05:37:03.061Z,994.4
2017-12-29T05:38:05.751Z,994.5
2017-12-29T05:39:08.174Z,994.4
2017-12-29T05:40:10.579Z,994.5
2017-12-29T05:41:12.996Z,994.5
2017-12-29T05:42:15.413Z,994.5
2017-12-29T05:43:17.804Z,994.6
2017-12-29T05:44:20.219Z,994.6
2017-12-29T05:45:22.630Z,994.6
2017-12-29T05:46:25.026Z,994.7
2017-12-29T05:47:27.440Z,994.7
2017-12-29T05:48:29.855Z,994.6
2017-12-29T05:49:32.259Z,994.7
2017-12-29T05:50:34.683Z,994.7
2017-12-29T05:51:37.360Z,994.8
2017-12-29T05:52:39.765Z,994.8
2017-12-29T05:53:42.479Z,994.8
2017-12-29T05:54:44.888Z,994.8
2017-12-29T05:55:47.294Z,994.8
2017-12-29T05:56:49.709Z,994.8
2017-12-29T05:57:52.120Z,994.8
2017-12-29T05:58:54.535Z,994.9
2017-12-29T05:59:56.948Z,994.8
2017-12-29T06:00:59.342Z,994.8
2017-12-29T06:02:02.031Z,994.8
2017-12-29T06:03:04.440Z,994.8
2017-12-29T06:04:06.848Z,994.8
2017-12-29T06:05:09.540Z,994.7
2017-12-29T06:06:11.950Z,994.8
2017-12-29T06:07:14.358Z,994.7
2017-12-29T06:08:17.054Z,994.7
2017-12-29T06:09:19.749Z,994.8
2017-12-29T06:10:22.169Z,994.8
2017-12-29T06:11:24.565Z,994.8
2017-12-29T06:12:26.974Z,994.9
2017-12-29T06:13:29.381Z,994.8
2017-12-29T06:14:31.794Z,994.8
2017-12-29T06:15:34.206Z,994.8
2017-12-29T06:16:36.927Z,994.8
2017-12-29T06:17:39.335Z,994.8
2017-12-29T06:18:42.036Z,994.8
2017-12-29T06:19:44.448Z,994.8
2017-12-29T06:20:46.856Z,994.8
2017-12-29T06:21:49.272Z,994.8
2017-12-29T06:22:51.959Z,994.7
2017-12-29T06:23:54.367Z,994.8
2017-12-29T06:24:56.790Z,994.8
2017-12-29T06:25:59.200Z,994.8
2017-12-29T06:27:01.895Z,994.9
2017-12-29T06:28:04.584Z,994.9
2017-12-29T06:29:07.285Z,994.9
2017-12-29T06:30:09.694Z,994.9
2017-12-29T06:31:12.104Z,994.9
2017-12-29T06:32:14.510Z,994.9
2017-12-29T06:33:16.920Z,994.9
2017-12-29T06:34:19.334Z,994.9
2017-12-29T06:35:21.749Z,994.9
2017-12-29T06:36:24.440Z,995
2017-12-29T06:37:26.843Z,995
2017-12-29T06:38:29.247Z,995
2017-12-29T06:39:31.657Z,995
2017-12-29T06:40:34.066Z,995
2017-12-29T06:41:36.474Z,995.1
2017-12-29T06:42:38.885Z,995.1
2017-12-29T06:43:41.290Z,995.1
2017-12-29T06:44:43.704Z,995.1
2017-12-29T06:45:46.113Z,995
2017-12-29T06:46:48.521Z,995
2017-12-29T06:47:50.931Z,995.1
2017-12-29T06:48:53.341Z,995
2017-12-29T06:49:55.749Z,995.1
2017-12-29T06:50:58.166Z,995.1
2017-12-29T06:52:00.575Z,995.1
2017-12-29T06:53:03.269Z,995.2
2017-12-29T06:54:05.679Z,995.2
2017-12-29T06:55:08.582Z,995.2
2017-12-29T06:56:10.991Z,995.2
2017-12-29T06:57:13.401Z,995.3
2017-12-29T06:58:15.810Z,995.2
2017-12-29T06:59:18.228Z,995.2
2017-12-29T07:00:20.627Z,995.3
2017-12-29T07:01:23.041Z,995.3
2017-12-29T07:02:25.442Z,995.3
2017-12-29T07:03:27.852Z,995.3
2017-12-29T07:04:30.337Z,995.3
2017-12-29T07:05:32.792Z,995.3
2017-12-29T07:06:35.708Z,995.2
2017-12-29T07:07:38.120Z,995.3
2017-12-29T07:08:40.516Z,995.2
2017-12-29T07:09:42.941Z,995.2
2017-12-29T07:10:45.350Z,995.2
2017-12-29T07:11:47.761Z,995.2
2017-12-29T07:12:50.167Z,995.2
2017-12-29T07:13:52.582Z,995.3
2017-12-29T07:14:54.996Z,995.2
2017-12-29T07:15:57.409Z,995.2
2017-12-29T07:16:59.808Z,995.3
2017-12-29T07:18:02.500Z,995.3
2017-12-29T07:19:04.916Z,995.3
2017-12-29T07:20:07.933Z,995.3
2017-12-29T07:21:10.624Z,995.3
2017-12-29T07:22:13.027Z,995.3
2017-12-29T07:23:15.432Z,995.3
2017-12-29T07:24:17.850Z,995.4
2017-12-29T07:25:20.262Z,995.3
2017-12-29T07:26:22.668Z,995.4
2017-12-29T07:27:25.068Z,995.4
2017-12-29T07:28:27.482Z,995.4
2017-12-29T07:29:29.894Z,995.4
2017-12-29T07:30:32.321Z,995.4
2017-12-29T07:31:35.014Z,995.4
2017-12-29T07:32:37.429Z,995.5
2017-12-29T07:33:39.844Z,995.4
2017-12-29T07:34:42.248Z,995.5
2017-12-29T07:35:44.660Z,995.6
2017-12-29T07:36:47.216Z,995.5
2017-12-29T07:37:50.082Z,995.5
2017-12-29T07:38:52.500Z,995.5
2017-12-29T07:39:54.917Z,995.6
2017-12-29T07:40:57.617Z,995.6
2017-12-29T07:42:00.039Z,995.6
2017-12-29T07:43:02.733Z,995.6
2017-12-29T07:44:05.149Z,995.4
2017-12-29T07:45:07.557Z,995.7
2017-12-29T07:46:09.974Z,995.6
2017-12-29T07:47:12.376Z,995.5
2017-12-29T07:48:14.803Z,995.6
2017-12-29T07:49:17.199Z,995.7
2017-12-29T07:50:19.918Z,995.7
2017-12-29T07:51:22.331Z,995.7
2017-12-29T07:52:24.730Z,995.7
2017-12-29T07:53:27.146Z,995.7
2017-12-29T07:54:29.565Z,995.8
2017-12-29T07:55:31.971Z,995.7
2017-12-29T07:56:34.386Z,995.8
2017-12-29T07:57:36.786Z,995.8
2017-12-29T07:58:39.198Z,995.8
2017-12-29T07:59:41.620Z,995.8
2017-12-29T08:00:44.029Z,995.8
2017-12-29T08:01:46.438Z,995.8
2017-12-29T08:02:48.851Z,995.8
2017-12-29T08:03:51.270Z,995.8
2017-12-29T08:04:53.664Z,995.8
2017-12-29T08:05:56.080Z,995.8
2017-12-29T08:06:58.773Z,995.9
2017-12-29T08:08:01.180Z,995.8
2017-12-29T08:09:03.589Z,995.8
2017-12-29T08:10:05.999Z,995.9
2017-12-29T08:11:08.416Z,995.9
2017-12-29T08:12:10.823Z,995.9
2017-12-29T08:13:13.237Z,995.9
2017-12-29T08:14:15.631Z,996
2017-12-29T08:15:18.043Z,995.8
2017-12-29T08:16:20.453Z,995.9
2017-12-29T08:17:22.864Z,995.9
2017-12-29T08:18:25.284Z,996
2017-12-29T08:19:27.698Z,996
2017-12-29T08:20:30.403Z,996
2017-12-29T08:21:33.094Z,996
2017-12-29T08:22:35.506Z,996
2017-12-29T08:23:37.901Z,996.1
2017-12-29T08:24:40.327Z,996
2017-12-29T08:25:42.742Z,996
2017-12-29T08:26:45.156Z,996.1
2017-12-29T08:27:47.568Z,996.1
2017-12-29T08:28:50.256Z,996.1
2017-12-29T08:29:52.949Z,996.1
2017-12-29T08:30:55.369Z,996.1
2017-12-29T08:31:57.764Z,996.1
2017-12-29T08:33:00.178Z,996.1
2017-12-29T08:34:02.591Z,996.2
2017-12-29T08:35:05.022Z,996.2
2017-12-29T08:36:08.068Z,996.2
2017-12-29T08:37:10.764Z,996.2
2017-12-29T08:38:13.184Z,996.2
2017-12-29T08:39:15.886Z,996.3
2017-12-29T08:40:18.582Z,996.3
2017-12-29T08:41:21.566Z,996.3
2017-12-29T08:42:24.266Z,996.3
2017-12-29T08:43:26.682Z,996.3
2017-12-29T08:44:29.090Z,996.2
2017-12-29T08:45:31.780Z,996.3
2017-12-29T08:46:34.184Z,996.3
2017-12-29T08:47:36.613Z,996.3
2017-12-29T08:48:39.012Z,996.3
2017-12-29T08:49:41.423Z,996.3
2017-12-29T08:50:44.497Z,996.3
2017-12-29T08:51:46.905Z,996.3
2017-12-29T08:52:49.604Z,996.4
2017-12-29T08:53:52.015Z,996.4
2017-12-29T08:54:54.429Z,996.4
2017-12-29T08:55:56.847Z,996.5
2017-12-29T08:56:59.273Z,996.5
2017-12-29T08:58:01.679Z,996.5
2017-12-29T08:59:04.114Z,996.5
2017-12-29T09:00:06.553Z,996.5
2017-12-29T09:01:08.969Z,996.5
2017-12-29T09:02:11.386Z,996.5
2017-12-29T09:03:13.801Z,996.5
2017-12-29T09:04:16.205Z,996.5
2017-12-29T09:05:18.623Z,996.5
2017-12-29T09:06:21.320Z,996.5
2017-12-29T09:07:23.729Z,996.5
2017-12-29T09:08:26.148Z,996.5
2017-12-29T09:09:28.560Z,996.6
2017-12-29T09:10:30.961Z,996.5
2017-12-29T09:11:33.385Z,996.6
2017-12-29T09:12:35.792Z,996.5
2017-12-29T09:13:38.198Z,996.6
2017-12-29T09:14:40.607Z,996.5
2017-12-29T09:15:43.019Z,996.7
2017-12-29T09:16:45.427Z,996.6
2017-12-29T09:17:47.842Z,996.5
2017-12-29T09:18:50.256Z,996.6
2017-12-29T09:19:52.945Z,996.5
2017-12-29T09:21:14.568Z,996.7
2017-12-29T09:22:16.964Z,996.7
2017-12-29T09:23:19.656Z,996.7
2017-12-29T09:24:22.070Z,996.7
2017-12-29T09:25:24.483Z,996.7
2017-12-29T09:26:26.902Z,996.7
2017-12-29T09:27:29.316Z,996.7
2017-12-29T09:28:31.719Z,996.8
2017-12-29T09:29:34.132Z,996.8
2017-12-29T09:30:36.548Z,996.7
2017-12-29T09:31:38.969Z,996.8
2017-12-29T09:32:41.386Z,996.8
2017-12-29T09:33:43.796Z,996.8
2017-12-29T09:34:46.212Z,996.8
2017-12-29T09:35:48.924Z,996.8
2017-12-29T09:36:51.334Z,996.8
2017-12-29T09:37:53.742Z,996.8
2017-12-29T09:38:56.433Z,996.8
2017-12-29T09:39:58.858Z,996.8
2017-12-29T09:41:01.544Z,996.8
2017-12-29T09:42:03.948Z,996.8
2017-12-29T09:43:06.362Z,996.8
2017-12-29T09:44:08.773Z,996.8
2017-12-29T09:45:11.188Z,996.8
2017-12-29T09:46:13.881Z,996.8
2017-12-29T09:47:16.274Z,996.7
2017-12-29T09:48:18.691Z,996.8
2017-12-29T09:49:21.387Z,996.7
2017-12-29T09:50:24.085Z,996.7
2017-12-29T09:51:26.493Z,996.7
2017-12-29T09:52:28.904Z,996.8
2017-12-29T09:53:31.299Z,996.8
2017-12-29T09:54:34.009Z,996.8
2017-12-29T09:55:37.634Z,996.7
2017-12-29T09:56:42.445Z,996.8
2017-12-29T09:57:46.490Z,996.8
2017-12-29T09:58:49.241Z,996.8
2017-12-29T09:59:54.058Z,996.8
2017-12-29T10:00:56.463Z,996.8
2017-12-29T10:01:58.866Z,996.8
2017-12-29T10:03:01.283Z,996.7
2017-12-29T10:04:03.708Z,996.7
2017-12-29T10:05:06.125Z,996.7
2017-12-29T10:06:08.533Z,996.7
2017-12-29T10:07:10.944Z,996.7
2017-12-29T10:08:13.355Z,996.6
2017-12-29T10:09:15.760Z,996.6
2017-12-29T10:10:18.172Z,996.6
2017-12-29T10:11:20.571Z,996.6
2017-12-29T10:12:22.980Z,996.7
2017-12-29T10:13:25.387Z,996.6
2017-12-29T10:14:27.802Z,996.7
2017-12-29T10:15:30.216Z,996.6
2017-12-29T10:16:32.639Z,996.6
2017-12-29T10:17:35.036Z,996.7
2017-12-29T10:18:37.468Z,996.7
2017-12-29T10:19:39.878Z,996.6
2017-12-29T10:20:42.287Z,996.6
2017-12-29T10:21:44.703Z,996.6
2017-12-29T10:22:47.109Z,996.6
2017-12-29T10:23:49.521Z,996.6
2017-12-29T10:24:51.931Z,996.7
2017-12-29T10:25:54.334Z,996.6
2017-12-29T10:26:56.747Z,996.6
2017-12-29T10:27:59.151Z,996.5
2017-12-29T10:29:52.883Z,996.6
2017-12-29T10:30:55.571Z,996.5
2017-12-29T10:31:58.038Z,996.5
2017-12-29T10:33:00.454Z,996.5
2017-12-29T10:34:02.875Z,996.5
2017-12-29T10:35:05.582Z,996.6
2017-12-29T10:36:07.993Z,996.6
2017-12-29T10:37:10.403Z,996.6
2017-12-29T10:38:13.307Z,996.6
2017-12-29T10:39:15.718Z,996.6
2017-12-29T10:40:18.128Z,996.6
2017-12-29T10:41:20.527Z,996.6
2017-12-29T10:42:23.224Z,996.6
2017-12-29T10:43:25.928Z,996.6
2017-12-29T10:44:28.343Z,996.5
2017-12-29T10:45:30.743Z,996.5
2017-12-29T10:46:33.161Z,996.5
2017-12-29T10:47:35.880Z,996.5
2017-12-29T10:48:38.293Z,996.5
2017-12-29T10:49:40.708Z,996.5
2017-12-29T10:50:43.403Z,996.5
2017-12-29T10:51:45.819Z,996.6
2017-12-29T10:52:48.236Z,996.5
2017-12-29T10:53:50.647Z,996.5
2017-12-29T10:54:53.042Z,996.5
2017-12-29T10:55:55.460Z,996.5
2017-12-29T10:56:57.861Z,996.5
2017-12-29T10:58:00.275Z,996.5
2017-12-29T10:59:02.686Z,996.5
2017-12-29T11:00:05.091Z,996.4
2017-12-29T11:01:07.779Z,996.4
2017-12-29T11:02:10.202Z,996.4
2017-12-29T11:03:12.615Z,996.4
2017-12-29T11:04:15.027Z,996.4
2017-12-29T11:05:17.442Z,996.4
2017-12-29T11:06:19.845Z,996.3
2017-12-29T11:07:22.252Z,996.4
2017-12-29T11:08:24.663Z,996.4
2017-12-29T11:09:27.087Z,996.4
2017-12-29T11:10:29.494Z,996.4
2017-12-29T11:11:31.901Z,996.4
2017-12-29T11:12:34.320Z,996.3
2017-12-29T11:13:36.734Z,996.4
2017-12-29T11:14:39.152Z,996.3
2017-12-29T11:15:41.857Z,996.3
2017-12-29T11:16:44.272Z,996.3
2017-12-29T11:17:46.676Z,996.3
2017-12-29T11:18:49.097Z,996.3
2017-12-29T11:19:51.499Z,996.3
2017-12-29T11:20:53.916Z,996.2
2017-12-29T11:21:56.324Z,996.2
2017-12-29T11:22:58.733Z,996.4
2017-12-29T11:24:01.148Z,996.3
2017-12-29T11:25:03.555Z,996.3
2017-12-29T11:26:05.978Z,996.3
2017-12-29T11:27:08.384Z,996.3
2017-12-29T11:28:10.787Z,996.3
2017-12-29T11:29:13.200Z,996.4
2017-12-29T11:30:15.619Z,996.4
2017-12-29T11:31:18.024Z,996.4
2017-12-29T11:32:20.439Z,996.3
2017-12-29T11:33:22.842Z,996.4
2017-12-29T11:34:25.253Z,996.3
2017-12-29T11:35:27.660Z,996.4
2017-12-29T11:36:30.061Z,996.3
2017-12-29T11:37:32.488Z,996.4
2017-12-29T11:38:34.898Z,996.4
2017-12-29T11:39:37.310Z,996.3
2017-12-29T11:40:39.722Z,996.4
2017-12-29T11:41:42.144Z,996.4
2017-12-29T11:42:44.555Z,996.3
2017-12-29T11:43:46.973Z,996.3
2017-12-29T11:44:49.377Z,996.4
2017-12-29T11:45:52.067Z,996.3
2017-12-29T11:46:54.486Z,996.3
2017-12-29T11:47:57.181Z,996.3
2017-12-29T11:48:59.601Z,996.3
2017-12-29T11:50:02.287Z,996.4
2017-12-29T11:51:04.693Z,996.3
2017-12-29T11:52:07.115Z,996.3
2017-12-29T11:53:09.522Z,996.4
2017-12-29T11:54:11.934Z,996.3
2017-12-29T11:55:14.625Z,996.4
2017-12-29T11:56:17.040Z,996.3
2017-12-29T11:57:19.739Z,996.3
2017-12-29T11:58:22.166Z,996.4
2017-12-29T11:59:24.558Z,996.3
2017-12-29T12:00:26.969Z,996.3
2017-12-29T12:01:29.388Z,996.2
2017-12-29T12:02:32.078Z,996.2
2017-12-29T12:03:34.490Z,996.3
2017-12-29T12:04:36.908Z,996.3
2017-12-29T12:05:39.591Z,996.2
2017-12-29T12:06:42.004Z,996.3
2017-12-29T12:07:44.415Z,996.2
2017-12-29T12:08:47.124Z,996.2
2017-12-29T12:09:49.536Z,996.1
2017-12-29T12:10:51.947Z,996.1
2017-12-29T12:11:54.360Z,996.1
2017-12-29T12:12:56.768Z,996.1
2017-12-29T12:13:59.184Z,996.1
2017-12-29T12:15:01.594Z,996.1
2017-12-29T12:16:04.002Z,996.1
2017-12-29T12:17:06.416Z,996.1
2017-12-29T12:18:08.833Z,996.2
2017-12-29T12:19:11.244Z,996.2
2017-12-29T12:20:13.656Z,996.1
2017-12-29T12:21:16.064Z,996.2
2017-12-29T12:22:18.512Z,996.3
2017-12-29T12:23:21.181Z,996.2
2017-12-29T12:24:23.591Z,996.1
2017-12-29T12:25:26.009Z,996.1
2017-12-29T12:26:28.422Z,996.3
2017-12-29T12:27:30.830Z,996.2
2017-12-29T12:28:33.527Z,996.2
2017-12-29T12:29:35.934Z,996.3
2017-12-29T12:30:38.339Z,996.3
2017-12-29T12:31:40.754Z,996.3
2017-12-29T12:32:43.169Z,996.3
2017-12-29T12:33:45.587Z,996.3
2017-12-29T12:34:47.986Z,996.2
2017-12-29T12:35:50.687Z,996.3
2017-12-29T12:36:53.101Z,996.3
2017-12-29T12:37:55.510Z,996.3
2017-12-29T12:38:57.925Z,996.2
2017-12-29T12:40:00.333Z,996.2
2017-12-29T12:41:02.773Z,996.2
2017-12-29T12:42:05.160Z,996.2
2017-12-29T12:43:07.570Z,996.1
2017-12-29T12:44:09.976Z,996.2
2017-12-29T12:45:12.391Z,996.1
2017-12-29T12:46:14.813Z,996.1
2017-12-29T12:47:17.245Z,996.2
2017-12-29T12:48:19.638Z,996.1
2017-12-29T12:49:22.036Z,996
2017-12-29T12:50:24.445Z,996.1
2017-12-29T12:51:26.862Z,996.1
2017-12-29T12:52:29.272Z,996.1
2017-12-29T12:53:31.684Z,996.1
2017-12-29T12:54:34.376Z,996.2
2017-12-29T12:55:36.794Z,996.1
2017-12-29T12:56:39.212Z,996.1
2017-12-29T12:57:41.912Z,996.2
2017-12-29T12:58:44.312Z,996.1
2017-12-29T12:59:47.008Z,996.1
2017-12-29T13:00:49.419Z,996
2017-12-29T13:01:51.835Z,996
2017-12-29T13:02:54.244Z,996
2017-12-29T13:03:56.657Z,996.1
2017-12-29T13:04:59.070Z,996.1
2017-12-29T13:06:01.765Z,996.1
2017-12-29T13:07:04.174Z,996
2017-12-29T13:08:06.603Z,996.1
2017-12-29T13:09:09.286Z,996.1
2017-12-29T13:10:11.700Z,996.2
2017-12-29T13:11:14.116Z,996.1
2017-12-29T13:12:16.524Z,996.1
2017-12-29T13:13:18.944Z,996.1
2017-12-29T13:14:21.368Z,996.2
2017-12-29T13:15:24.056Z,996.2
2017-12-29T13:16:26.476Z,996.2
2017-12-29T13:17:28.884Z,996.2
2017-12-29T13:18:31.861Z,996.1
2017-12-29T13:19:34.561Z,996.2
2017-12-29T13:20:36.971Z,996.2
2017-12-29T13:21:39.383Z,996.1
2017-12-29T13:22:41.812Z,996.2
2017-12-29T13:23:44.217Z,996.2
2017-12-29T13:24:46.920Z,996.2
2017-12-29T13:25:49.326Z,996.2
2017-12-29T13:26:51.745Z,996.2
2017-12-29T13:27:54.157Z,996.3
2017-12-29T13:28:56.853Z,996.2